Veendam, Netherlands
Current Conditions -  °F | °C
As of 10:55 AM on Tuesday 21 Oct 2014 (Local Time) from EHGG Reporting Station
Moderate Rain Moderate Rain  
Wind Chill: 54°   Ceiling: 1000
Heat Index: 54°   Visibility: 6mi
Dew Point: 52°   Wind: 15mph
Humidity: 94%   Direction: 180°S
Pressure: 29.53"   Gusts: NA
Location:  53.11°N, 6.88°E
Report Text: EHGG 210855Z AUTO 18013KT 150V220 9999 DZRA FEW008 SCT009BKN010 BKN015CB 12/11 Q1000 TEMPO 3000 RA -SHRA BKN008 FEW025CB
Loading
Personal Weather Stations






























Interactive Weather Map
Tropical Storm Tracking
New forecast layout! Learn more

10-Day Weather Forecast

Advertisements
Track Severe Weather on mobile